Ocklawaha, Florida
Current Conditions -  °F | °C
As of 12:53 PM on Friday 19 Dec 2014 (Local Time) from KLEE Reporting Station
Clear Clear  
Wind Chill: 66°   Ceiling: Unl
Heat Index: 66°   Visibility: 10mi
Dew Point: 43°   Wind: 5mph
Humidity: 43%   Direction: 150°SSE
Pressure: 30.11"   Gusts: NA
Location:  29.07°N, 81.91°W
Report Text: KLEE 191753Z 15004KT 10SM CLR 19/06 A3011 RMK AO2 SLP195 T01890061 10194 20100 58022
Loading
Personal Weather Stations






























Interactive Weather Map New forecast layout! Learn more

10-Day Weather Forecast

Advertisements
Track Severe Weather on mobile